Time;durP1;ratioP1;P1;durP2;ratioP2;P2;SDS_P1;SDS_P2;PMS_P1;PMS_P2;Temp;Humidity;BMP_temperature;BMP_pressure;BME280_temperature;BME280_humidity;BME280_pressure;Samples;Min_cycle;Max_cycle;Signal;HPM_P1;HPM_P2
2022/04/29 00:00:07;;;;;;;9.93;6.10;;;9.60;92.90;;;;;;5003002;28;20018;-74
2022/04/29 05:01:26;;;;;;;13.50;9.10;;;8.30;98.90;;;;;;5898346;23;20122;-74
2022/04/29 05:04:35;;;;;;;14.68;8.85;;;8.40;98.50;;;;;;4905968;29;20093;-75
2022/04/29 05:07:21;;;;;;;11.73;8.77;;;8.50;98.70;;;;;;4907092;29;20052;-75
2022/04/29 05:09:50;;;;;;;11.93;8.27;;;8.60;98.50;;;;;;4885344;29;20036;-76
2022/04/29 05:12:16;;;;;;;13.75;9.48;;;8.60;98.50;;;;;;4887386;29;20210;-78
2022/04/29 05:15:01;;;;;;;13.43;8.88;;;8.60;98.50;;;;;;4887871;29;20080;-77
2022/04/29 05:17:27;;;;;;;12.63;9.25;;;8.60;98.40;;;;;;4886845;29;20227;-75
2022/04/29 05:20:13;;;;;;;13.15;9.10;;;8.60;98.20;;;;;;4906749;29;20192;-75
2022/04/29 05:22:40;;;;;;;13.45;9.05;;;8.70;98.10;;;;;;4905149;29;20032;-75
2022/04/29 05:25:13;;;;;;;12.77;9.70;;;8.70;98.10;;;;;;4905839;29;20024;-75
2022/04/29 05:27:58;;;;;;;12.33;9.30;;;8.80;98.10;;;;;;4906519;29;20048;-75
2022/04/29 05:30:43;;;;;;;13.25;9.15;;;9.00;97.70;;;;;;4905792;29;20096;-75
2022/04/29 05:33:11;;;;;;;13.65;9.35;;;9.00;97.60;;;;;;4907131;29;20151;-75
2022/04/29 05:35:56;;;;;;;15.95;8.90;;;9.10;97.30;;;;;;4898080;29;20055;-75
2022/04/29 05:44:07;;;;;;;15.75;10.52;;;9.10;97.30;;;;;;4886939;29;20064;-74
2022/04/29 05:46:35;;;;;;;16.35;10.70;;;9.10;97.30;;;;;;4887416;29;20108;-75
2022/04/29 05:49:02;;;;;;;16.83;11.43;;;9.20;97.40;;;;;;4887409;29;20025;-74
2022/04/29 05:51:28;;;;;;;20.10;11.77;;;9.20;97.20;;;;;;4886988;29;20287;-74
2022/04/29 05:53:54;;;;;;;20.45;11.40;;;9.30;97.00;;;;;;4886335;29;20048;-74
2022/04/29 05:56:20;;;;;;;15.40;10.27;;;9.40;96.90;;;;;;4871415;29;20028;-75
2022/04/29 05:58:46;;;;;;;15.43;10.50;;;9.50;96.40;;;;;;4886450;29;20029;-74
2022/04/29 06:01:38;;;;;;;16.50;10.90;;;9.60;96.20;;;;;;4888387;29;20052;-75
2022/04/29 06:04:04;;;;;;;16.30;9.88;;;9.60;96.20;;;;;;4902122;29;20048;-75
2022/04/29 06:06:33;;;;;;;13.50;9.85;;;9.80;95.60;;;;;;4890414;29;20341;-75
2022/04/29 06:08:59;;;;;;;14.20;9.75;;;9.80;95.30;;;;;;4907815;29;20032;-75
2022/04/29 06:11:25;;;;;;;14.82;9.35;;;9.90;95.20;;;;;;4910119;29;20222;-75
2022/04/29 06:13:51;;;;;;;12.80;9.55;;;9.90;95.20;;;;;;4892421;29;20029;-75
2022/04/29 06:16:46;;;;;;;14.27;9.13;;;10.10;95.00;;;;;;4889340;29;20064;-74
2022/04/29 06:19:30;;;;;;;15.88;10.07;;;10.40;94.50;;;;;;4909917;29;20043;-74
2022/04/29 06:22:16;;;;;;;13.48;9.20;;;10.70;93.90;;;;;;4908488;29;20092;-74
2022/04/29 06:24:44;;;;;;;14.48;9.63;;;10.90;93.40;;;;;;4908101;29;20044;-74
2022/04/29 06:27:11;;;;;;;15.32;9.50;;;11.10;92.80;;;;;;4909957;29;20107;-73
2022/04/29 06:29:36;;;;;;;14.15;9.20;;;11.30;92.70;;;;;;4908783;29;20318;-75
2022/04/29 06:32:03;;;;;;;16.23;8.90;;;11.40;92.30;;;;;;4891749;29;20052;-74
2022/04/29 06:34:49;;;;;;;13.40;9.18;;;11.60;91.90;;;;;;4908372;29;20099;-74
2022/04/29 06:37:14;;;;;;;15.57;9.68;;;11.90;91.50;;;;;;4909289;29;20042;-74
2022/04/29 06:39:41;;;;;;;14.32;9.10;;;12.10;90.90;;;;;;4892533;29;20032;-74
2022/04/29 06:42:49;;;;;;;16.13;9.38;;;12.30;90.70;;;;;;4892503;29;20024;-73
2022/04/29 06:45:33;;;;;;;12.82;8.63;;;12.40;89.80;;;;;;4908454;29;20103;-74
2022/04/29 06:48:18;;;;;;;15.43;8.68;;;12.70;89.20;;;;;;4909179;29;20314;-74
2022/04/29 06:51:02;;;;;;;15.68;8.50;;;12.90;88.20;;;;;;4908541;29;20125;-74
2022/04/29 06:53:57;;;;;;;14.90;8.60;;;12.90;87.60;;;;;;4897855;29;20099;-75
2022/04/29 06:56:27;;;;;;;16.15;9.18;;;13.20;87.60;;;;;;4892514;29;20333;-73
2022/04/29 06:58:53;;;;;;;13.20;8.45;;;13.40;86.90;;;;;;4891862;29;20040;-73
2022/04/29 07:01:24;;;;;;;13.60;8.93;;;13.70;85.70;;;;;;4891393;29;20361;-73
2022/04/29 07:03:49;;;;;;;12.27;8.88;;;13.70;84.80;;;;;;4888584;29;20045;-73
2022/04/29 07:06:15;;;;;;;13.23;8.93;;;13.60;83.90;;;;;;4888749;29;20029;-74
2022/04/29 07:08:41;;;;;;;16.70;10.23;;;13.80;84.00;;;;;;4896871;29;20033;-73
2022/04/29 07:11:25;;;;;;;13.52;8.07;;;13.80;84.10;;;;;;4902166;29;20214;-73
2022/04/29 07:13:58;;;;;;;12.40;8.73;;;14.10;83.60;;;;;;4891513;29;20378;-74
2022/04/29 07:16:25;;;;;;;13.57;8.90;;;14.40;82.80;;;;;;4888033;29;20051;-73
2022/04/29 07:19:13;;;;;;;13.95;8.63;;;14.40;81.60;;;;;;4888560;29;20044;-75
2022/04/29 07:21:39;;;;;;;11.60;8.05;;;14.60;81.60;;;;;;4888536;29;20041;-75
2022/04/29 07:24:06;;;;;;;12.60;9.48;;;14.80;81.80;;;;;;4888835;29;20311;-73
2022/04/29 07:26:38;;;;;;;18.02;9.18;;;14.80;80.80;;;;;;4889850;29;20041;-74
2022/04/29 07:29:04;;;;;;;13.52;9.13;;;14.80;81.10;;;;;;4889186;29;20064;-74
2022/04/29 07:31:36;;;;;;;15.55;9.07;;;15.00;81.10;;;;;;4887717;29;20045;-73
2022/04/29 07:41:44;;;;;;;13.98;8.88;;;14.90;81.20;;;;;;4889125;29;20056;-73
2022/04/29 07:42:59;;;;;;;14.75;9.80;;;15.10;79.40;;;;;;4907018;29;20048;-74
2022/04/29 07:45:25;;;;;;;14.25;9.30;;;15.10;78.60;;;;;;4890743;29;20088;-74
2022/04/29 07:48:18;;;;;;;13.88;9.35;;;15.10;78.80;;;;;;4907913;29;20024;-74
2022/04/29 07:50:44;;;;;;;15.80;9.82;;;15.30;78.10;;;;;;4891039;29;20084;-75
2022/04/29 07:53:10;;;;;;;17.65;9.52;;;15.40;77.40;;;;;;4890841;29;20040;-75
2022/04/29 07:55:39;;;;;;;15.50;9.50;;;15.40;77.20;;;;;;4890820;29;20029;-75
2022/04/29 07:58:05;;;;;;;13.73;9.75;;;15.50;77.60;;;;;;4890380;29;20401;-75
2022/04/29 08:00:32;;;;;;;13.98;9.40;;;15.40;77.60;;;;;;4907140;29;20299;-74
2022/04/29 08:03:02;;;;;;;11.90;9.00;;;15.50;77.90;;;;;;4887101;29;20083;-75
2022/04/29 08:05:57;;;;;;;14.23;8.40;;;15.50;77.70;;;;;;4884772;29;20112;-74
2022/04/29 08:08:23;;;;;;;12.15;8.43;;;15.50;78.00;;;;;;4903025;29;20032;-73
2022/04/29 08:10:50;;;;;;;14.45;9.10;;;15.40;78.20;;;;;;4902944;29;20025;-73
2022/04/29 08:13:16;;;;;;;13.35;8.10;;;15.30;78.30;;;;;;4884256;29;20059;-74
2022/04/29 08:15:46;;;;;;;10.88;8.48;;;15.30;77.60;;;;;;4873398;29;20041;-73
2022/04/29 08:18:38;;;;;;;12.18;8.50;;;15.20;77.80;;;;;;4880635;29;20041;-75
2022/04/29 08:21:04;;;;;;;13.25;7.65;;;15.10;77.70;;;;;;4887124;29;20341;-73
2022/04/29 08:23:31;;;;;;;11.10;7.60;;;15.10;77.50;;;;;;4902809;29;20060;-73
2022/04/29 08:25:57;;;;;;;10.32;7.30;;;15.20;77.90;;;;;;4902430;29;20035;-73
2022/04/29 08:28:26;;;;;;;10.02;7.28;;;15.30;77.30;;;;;;4902608;29;20044;-75
2022/04/29 08:30:52;;;;;;;9.85;7.05;;;15.50;77.30;;;;;;4901724;29;20041;-74
2022/04/29 08:33:18;;;;;;;11.57;7.55;;;15.70;77.00;;;;;;4903003;29;20149;-74
2022/04/29 08:35:48;;;;;;;13.95;7.55;;;15.90;76.60;;;;;;4902172;29;20077;-75
2022/04/29 08:38:14;;;;;;;12.27;7.07;;;16.00;74.50;;;;;;4903007;29;20279;-74
2022/04/29 08:40:47;;;;;;;13.38;7.60;;;16.40;73.90;;;;;;4902655;29;20025;-75
2022/04/29 08:43:15;;;;;;;10.13;6.82;;;16.60;73.40;;;;;;4902805;29;20041;-75
2022/04/29 08:45:43;;;;;;;10.18;6.78;;;16.80;73.50;;;;;;4886318;29;20048;-75
2022/04/29 08:48:43;;;;;;;12.82;6.95;;;17.00;73.40;;;;;;4887926;29;20096;-75
2022/04/29 08:51:09;;;;;;;10.48;6.75;;;17.30;73.10;;;;;;4887629;29;20313;-75
2022/04/29 08:53:35;;;;;;;12.15;6.85;;;17.60;71.00;;;;;;4888226;29;20105;-75
2022/04/29 08:58:47;;;;;;;9.23;6.75;;;17.40;69.20;;;;;;4888328;29;20041;-73
2022/04/29 09:01:16;;;;;;;10.35;7.00;;;17.60;70.40;;;;;;4887248;29;20334;-76
2022/04/29 09:03:46;;;;;;;11.45;7.30;;;17.80;70.40;;;;;;4886813;29;20116;-74
2022/04/29 09:06:17;;;;;;;10.52;7.25;;;17.80;69.50;;;;;;4887936;29;20025;-75
2022/04/29 09:08:47;;;;;;;9.95;7.15;;;17.90;69.70;;;;;;4886681;29;20330;-74
2022/04/29 09:11:21;;;;;;;10.43;6.65;;;18.00;69.40;;;;;;4886774;29;20088;-74
2022/04/29 09:13:53;;;;;;;11.20;6.28;;;18.30;69.00;;;;;;4887673;29;20199;-78
2022/04/29 09:16:25;;;;;;;10.43;6.18;;;18.50;67.70;;;;;;4884324;29;20040;-74
2022/04/29 09:18:55;;;;;;;10.57;5.68;;;18.80;67.10;;;;;;4885868;29;20055;-74
2022/04/29 09:21:26;;;;;;;10.65;5.72;;;19.20;67.00;;;;;;4888490;29;20341;-74
2022/04/29 09:23:57;;;;;;;11.57;6.35;;;19.60;65.60;;;;;;4886859;29;20052;-74
2022/04/29 09:26:42;;;;;;;11.55;6.03;;;19.70;64.70;;;;;;4887696;29;20400;-74
2022/04/29 09:29:28;;;;;;;8.05;5.18;;;19.80;63.00;;;;;;4886721;29;20025;-74
2022/04/29 09:32:12;;;;;;;9.30;5.53;;;19.90;63.50;;;;;;4886871;29;20104;-74
2022/04/29 09:34:50;;;;;;;8.95;5.43;;;19.90;62.10;;;;;;4888237;29;20041;-75
2022/04/29 09:37:27;;;;;;;6.60;4.60;;;19.90;62.20;;;;;;4887795;29;20099;-75
2022/04/29 09:40:03;;;;;;;9.05;4.90;;;20.30;61.80;;;;;;4887038;29;20075;-75
2022/04/29 09:42:43;;;;;;;5.70;3.97;;;20.70;60.00;;;;;;4891480;29;20047;-75
2022/04/29 09:45:17;;;;;;;6.45;3.83;;;21.10;60.00;;;;;;4889030;29;20109;-75
2022/04/29 09:47:43;;;;;;;6.85;4.07;;;21.30;59.90;;;;;;4891065;29;20210;-75
2022/04/29 09:50:09;;;;;;;6.57;4.15;;;21.70;57.80;;;;;;4890826;29;20357;-75
2022/04/29 09:52:40;;;;;;;5.10;3.20;;;21.60;57.20;;;;;;4891752;29;20101;-75
2022/04/29 09:55:14;;;;;;;4.80;3.42;;;21.50;57.60;;;;;;4890186;29;20045;-75
2022/04/29 09:58:09;;;;;;;5.53;3.50;;;21.60;58.20;;;;;;4882726;29;20303;-76
2022/04/29 10:00:35;;;;;;;8.07;3.75;;;22.00;58.10;;;;;;4880146;29;20149;-75
2022/04/29 10:03:03;;;;;;;4.85;3.38;;;22.00;57.80;;;;;;4901657;29;20040;-75
2022/04/29 10:05:31;;;;;;;6.93;3.33;;;21.70;57.50;;;;;;4905305;29;20031;-75
2022/04/29 10:08:04;;;;;;;5.93;3.30;;;21.60;57.70;;;;;;4899738;29;20068;-75
2022/04/29 10:10:31;;;;;;;5.05;3.53;;;21.40;57.60;;;;;;4901438;29;20040;-75
2022/04/29 10:12:58;;;;;;;8.70;4.30;;;21.50;57.70;;;;;;4902276;29;20251;-76
2022/04/29 10:15:43;;;;;;;5.90;3.88;;;21.50;58.20;;;;;;4909565;29;20452;-75
2022/04/29 10:21:46;;;;;;;6.65;3.17;;;21.20;57.80;;;;;;4909175;29;20047;-74
2022/04/29 10:24:12;;;;;;;;;;;21.50;57.10;;;;;;4908769;29;20057;-73
2022/04/29 10:26:38;;;;;;;6.25;2.97;;;21.60;57.30;;;;;;4909943;29;19903;-76
2022/04/29 10:29:05;;;;;;;5.78;3.10;;;21.70;57.90;;;;;;4909412;29;20047;-76
2022/04/29 10:31:30;;;;;;;3.95;2.60;;;21.90;56.30;;;;;;4892260;29;20108;-75
2022/04/29 10:34:25;;;;;;;7.72;2.75;;;21.90;55.70;;;;;;4909570;29;20076;-75
2022/04/29 10:36:51;;;;;;;4.03;2.20;;;22.00;56.10;;;;;;4908807;29;20032;-75
2022/04/29 10:39:20;;;;;;;3.95;2.33;;;22.00;52.70;;;;;;4909945;29;20031;-74
2022/04/29 10:42:00;;;;;;;4.43;2.30;;;21.80;53.10;;;;;;4909732;29;20041;-75
2022/04/29 10:44:26;;;;;;;4.45;2.30;;;21.40;52.60;;;;;;4909196;29;20067;-75
2022/04/29 10:46:52;;;;;;;4.97;2.45;;;21.60;53.20;;;;;;4906923;29;20295;-76
2022/04/29 10:49:44;;;;;;;15.13;3.88;;;21.60;53.10;;;;;;4901026;29;20032;-73
2022/04/29 10:52:25;;;;;;;6.38;2.60;;;21.80;53.40;;;;;;4908419;29;20271;-73
2022/04/29 10:55:22;;;;;;;4.00;2.45;;;22.10;52.50;;;;;;4908455;29;20095;-76
2022/04/29 10:57:57;;;;;;;5.93;2.40;;;22.50;52.20;;;;;;4908995;29;20032;-74
2022/04/29 11:00:28;;;;;;;7.22;2.30;;;22.80;52.20;;;;;;4904946;29;20077;-73
2022/04/29 11:03:35;;;;;;;4.80;2.35;;;22.90;52.10;;;;;;4886524;29;20052;-74
2022/04/29 11:06:41;;;;;;;3.90;2.30;;;22.90;52.50;;;;;;4905961;29;20037;-74
2022/04/29 11:09:28;;;;;;;5.47;2.33;;;22.80;51.20;;;;;;4881124;29;20143;-74
2022/04/29 11:11:55;;;;;;;7.28;2.75;;;23.50;50.80;;;;;;4908088;29;20052;-74
2022/04/29 11:15:10;;;;;;;4.03;2.28;;;24.00;50.00;;;;;;4907722;29;20043;-74
2022/04/29 11:18:23;;;;;;;4.10;2.28;;;24.40;49.30;;;;;;4904239;29;20234;-74
2022/04/29 11:20:56;;;;;;;4.07;2.50;;;24.40;49.20;;;;;;4906242;29;20218;-74
2022/04/29 11:26:18;;;;;;;4.70;2.10;;;24.70;48.70;;;;;;4903844;29;20100;-76
2022/04/29 11:28:52;;;;;;;2.95;1.80;;;25.00;48.80;;;;;;4907397;29;20025;-74
2022/04/29 11:31:37;;;;;;;;;;;25.20;48.80;;;;;;4908530;29;20379;-74
2022/04/29 11:34:15;;;;;;;3.05;2.20;;;25.10;47.30;;;;;;4891315;29;19907;-74
2022/04/29 11:36:43;;;;;;;4.88;2.70;;;24.90;48.20;;;;;;4908151;29;20037;-74
2022/04/29 11:39:17;;;;;;;3.97;2.00;;;24.70;48.40;;;;;;4907722;29;20076;-74
2022/04/29 11:41:59;;;;;;;4.55;2.00;;;24.70;47.70;;;;;;4908104;29;20032;-74
2022/04/29 11:44:38;;;;;;;3.88;1.88;;;24.10;48.20;;;;;;4891505;29;20055;-74
2022/04/29 11:47:05;;;;;;;4.25;2.03;;;23.70;48.80;;;;;;4907244;29;20044;-74
2022/04/29 11:49:32;;;;;;;2.92;1.83;;;23.50;49.10;;;;;;4908431;29;20025;-73
2022/04/29 11:52:16;;;;;;;5.50;2.00;;;24.20;49.30;;;;;;4905770;29;20040;-74
2022/04/29 11:55:13;;;;;;;3.45;1.70;;;25.10;46.30;;;;;;4908253;29;20043;-74
2022/04/29 11:57:47;;;;;;;3.20;1.73;;;25.10;46.30;;;;;;4890371;29;20036;-74
2022/04/29 12:00:25;;;;;;;5.13;2.22;;;25.00;46.40;;;;;;4896611;29;20036;-74
2022/04/29 12:02:52;;;;;;;8.60;2.22;;;24.50;46.60;;;;;;4907596;29;20048;-74
2022/04/29 12:05:23;;;;;;;3.53;1.95;;;24.80;47.40;;;;;;4890149;29;20252;-75
2022/04/29 12:07:51;;;;;;;4.82;2.20;;;24.90;47.00;;;;;;4899770;29;20025;-75
2022/04/29 12:10:29;;;;;;;2.90;1.88;;;24.80;46.40;;;;;;4898846;29;20080;-75
2022/04/29 12:13:03;;;;;;;4.25;2.38;;;24.60;46.30;;;;;;4897762;29;20044;-76
2022/04/29 12:15:30;;;;;;;4.25;2.00;;;23.90;47.10;;;;;;4895872;29;20045;-73
2022/04/29 12:18:06;;;;;;;2.75;1.75;;;24.10;47.50;;;;;;4897021;29;20036;-73
2022/04/29 12:20:32;;;;;;;4.30;1.92;;;24.10;48.30;;;;;;4907526;29;20036;-73
2022/04/29 12:23:07;;;;;;;3.05;1.80;;;24.00;46.30;;;;;;4907681;29;20198;-74
2022/04/29 12:25:41;;;;;;;5.90;1.75;;;24.50;47.20;;;;;;4907357;29;20028;-73
2022/04/29 12:28:12;;;;;;;4.20;1.90;;;25.00;46.60;;;;;;4890320;29;20108;-74
2022/04/29 12:36:14;;;;;;;4.47;2.10;;;25.60;45.70;;;;;;4906558;29;20058;-74
2022/04/29 12:38:42;;;;;;;2.97;2.03;;;24.80;46.30;;;;;;4907579;29;20053;-75
2022/04/29 12:41:15;;;;;;;;;;;25.10;46.90;;;;;;4907153;29;20131;-76
2022/04/29 12:43:44;;;;;;;3.10;2.08;;;25.80;46.50;;;;;;4901330;29;19911;-72
2022/04/29 12:46:16;;;;;;;3.95;2.67;;;27.10;45.30;;;;;;4888257;29;20292;-74
2022/04/29 12:48:55;;;;;;;5.32;2.53;;;28.20;44.40;;;;;;4888661;29;20056;-74
2022/04/29 12:51:33;;;;;;;4.57;2.28;;;29.10;43.40;;;;;;4888645;29;20033;-75
2022/04/29 12:54:07;;;;;;;4.60;2.08;;;30.80;43.00;;;;;;4905796;29;20095;-75
2022/04/29 12:56:36;;;;;;;3.78;2.30;;;31.50;43.10;;;;;;4904695;29;20040;-75
2022/04/29 12:59:04;;;;;;;4.22;2.45;;;32.90;41.50;;;;;;4891502;29;20031;-75
2022/04/29 13:01:39;;;;;;;3.30;2.20;;;32.30;40.80;;;;;;4906069;29;20032;-75
2022/04/29 13:04:12;;;;;;;5.18;2.00;;;31.70;41.10;;;;;;4905516;29;20083;-75
2022/04/29 13:06:52;;;;;;;4.43;2.22;;;32.80;41.00;;;;;;4907355;29;20100;-76
2022/04/29 13:09:17;;;;;;;3.13;2.05;;;32.50;40.50;;;;;;4889613;29;20036;-75
2022/04/29 13:11:44;;;;;;;2.90;1.90;;;31.70;41.30;;;;;;4906986;29;20024;-75
2022/04/29 13:14:17;;;;;;;2.63;1.83;;;32.50;41.30;;;;;;4889724;29;20689;-74
2022/04/29 13:16:44;;;;;;;3.20;2.00;;;33.80;40.70;;;;;;4906209;29;20080;-75
2022/04/29 13:19:13;;;;;;;3.67;2.25;;;34.40;39.50;;;;;;4903229;29;20027;-75
2022/04/29 13:21:39;;;;;;;4.13;1.85;;;34.00;39.40;;;;;;4906661;29;20103;-75
2022/04/29 13:24:07;;;;;;;4.28;2.45;;;34.00;39.30;;;;;;4889642;29;20262;-74
2022/04/29 13:26:44;;;;;;;3.45;1.90;;;34.70;39.30;;;;;;4905721;29;20156;-75
2022/04/29 13:29:11;;;;;;;3.65;1.63;;;36.70;39.40;;;;;;4888092;29;20025;-73
2022/04/29 13:31:36;;;;;;;4.20;1.67;;;37.10;39.20;;;;;;4887159;29;20104;-75
2022/04/29 13:34:02;;;;;;;2.75;1.80;;;38.10;38.50;;;;;;4887321;29;20073;-75
2022/04/29 13:36:28;;;;;;;3.20;1.73;;;37.50;38.00;;;;;;4893279;29;20081;-75
2022/04/29 13:38:55;;;;;;;3.60;1.75;;;37.10;37.40;;;;;;4906713;29;20231;-75
2022/04/29 13:41:24;;;;;;;3.78;1.65;;;35.90;38.30;;;;;;4890004;29;20103;-75
2022/04/29 13:43:50;;;;;;;5.65;1.88;;;33.70;39.10;;;;;;4906842;29;20039;-75
2022/04/29 13:46:16;;;;;;;3.63;2.15;;;32.40;41.00;;;;;;4905069;29;20060;-74
2022/04/29 13:48:42;;;;;;;4.57;1.88;;;31.60;40.80;;;;;;4906448;29;20322;-75
2022/04/29 13:51:08;;;;;;;3.58;1.92;;;29.90;44.10;;;;;;4906546;29;20031;-74
2022/04/29 13:53:34;;;;;;;3.42;1.75;;;29.50;42.70;;;;;;4905049;29;20056;-75
2022/04/29 13:55:59;;;;;;;4.35;2.08;;;29.30;42.90;;;;;;4905643;29;20076;-75
2022/04/29 13:58:25;;;;;;;3.35;1.80;;;29.00;43.00;;;;;;4890329;29;20051;-74
2022/04/29 14:00:53;;;;;;;2.67;1.90;;;29.10;43.40;;;;;;4905246;29;20112;-77
2022/04/29 14:03:21;;;;;;;4.28;2.08;;;29.20;43.30;;;;;;4889412;29;20247;-74
2022/04/29 14:05:47;;;;;;;4.13;1.70;;;29.00;43.30;;;;;;4906611;29;20039;-76
2022/04/29 14:08:13;;;;;;;6.53;1.92;;;28.80;43.80;;;;;;4904858;29;20017;-75
2022/04/29 14:10:39;;;;;;;3.97;1.77;;;28.60;43.10;;;;;;4906781;29;20333;-76
2022/04/29 14:13:08;;;;;;;2.17;1.77;;;28.50;43.00;;;;;;4888121;29;20033;-74
2022/04/29 14:15:34;;;;;;;3.78;2.10;;;28.40;42.80;;;;;;4887543;29;20157;-75
2022/04/29 14:18:00;;;;;;;3.38;2.00;;;28.70;43.10;;;;;;4887457;29;20032;-76
2022/04/29 14:20:26;;;;;;;5.75;2.15;;;28.90;44.20;;;;;;4887870;29;20033;-76
2022/04/29 14:22:52;;;;;;;5.88;2.30;;;29.50;44.20;;;;;;4888133;29;20033;-75
2022/04/29 14:25:19;;;;;;;4.20;1.75;;;31.10;42.70;;;;;;4887250;29;20021;-74
2022/04/29 14:27:45;;;;;;;3.88;1.85;;;32.90;41.90;;;;;;4889118;29;20029;-74
2022/04/29 14:30:13;;;;;;;2.60;1.67;;;33.40;40.50;;;;;;4889940;29;20037;-74
2022/04/29 14:32:40;;;;;;;3.47;2.20;;;32.70;40.40;;;;;;4890484;29;20052;-74
2022/04/29 14:35:07;;;;;;;5.07;1.57;;;32.20;41.20;;;;;;4890510;29;20333;-74
2022/04/29 14:37:34;;;;;;;2.75;1.45;;;31.70;41.00;;;;;;4904859;29;20032;-74
2022/04/29 14:40:08;;;;;;;4.55;2.10;;;31.10;41.70;;;;;;4909266;29;20271;-74
2022/04/29 14:42:34;;;;;;;2.63;1.88;;;30.80;41.60;;;;;;4909017;29;20040;-74
2022/04/29 14:45:03;;;;;;;3.05;1.90;;;30.70;41.50;;;;;;4908931;29;20067;-74
2022/04/29 14:47:30;;;;;;;3.42;1.90;;;30.70;41.60;;;;;;4909143;29;20116;-74
2022/04/29 14:49:56;;;;;;;3.55;1.90;;;30.20;42.90;;;;;;4909152;29;20056;-74
2022/04/29 14:52:22;;;;;;;5.03;2.30;;;29.80;43.00;;;;;;4905789;29;20048;-74
2022/04/29 14:54:48;;;;;;;4.63;2.20;;;29.90;42.60;;;;;;4895877;29;20041;-74
2022/04/29 14:57:15;;;;;;;4.35;2.20;;;30.10;43.80;;;;;;4889957;29;20037;-74
2022/04/29 14:59:41;;;;;;;4.38;2.22;;;30.00;42.30;;;;;;4890265;29;20048;-74
2022/04/29 15:02:07;;;;;;;5.40;2.60;;;29.70;42.60;;;;;;4899824;29;20061;-74
2022/04/29 15:04:34;;;;;;;3.50;2.58;;;29.40;42.50;;;;;;4909284;29;20036;-74
2022/04/29 15:06:59;;;;;;;3.28;2.20;;;29.20;43.30;;;;;;4908983;29;20092;-74
2022/04/29 15:17:40;;;;;;;5.05;2.33;;;28.60;44.50;;;;;;4908569;29;20330;-74
2022/04/29 15:20:06;;;;;;;4.00;2.13;;;28.60;45.60;;;;;;4904296;29;20048;-76
2022/04/29 15:22:33;;;;;;;5.15;2.45;;;28.30;46.30;;;;;;4898986;29;20033;-75
2022/04/29 15:25:00;;;;;;;;;;;28.10;44.60;;;;;;4895051;29;20056;-75
2022/04/29 15:27:26;;;;;;;5.38;2.13;;;27.70;46.60;;;;;;4891379;29;19908;-75
2022/04/29 15:29:53;;;;;;;4.18;2.50;;;27.40;45.60;;;;;;4909072;29;20040;-75
2022/04/29 15:32:18;;;;;;;5.40;2.75;;;27.30;45.40;;;;;;4907655;29;20382;-76
2022/04/29 15:34:44;;;;;;;4.68;2.20;;;27.40;45.40;;;;;;4908629;29;20040;-75
2022/04/29 15:37:10;;;;;;;3.17;1.90;;;27.70;45.20;;;;;;4908412;29;20031;-74
2022/04/29 15:39:35;;;;;;;3.35;1.95;;;28.10;46.80;;;;;;4908553;29;20044;-74
2022/04/29 15:42:03;;;;;;;3.05;1.90;;;28.00;45.40;;;;;;4908735;29;20100;-74
2022/04/29 15:44:30;;;;;;;3.40;2.08;;;28.20;45.30;;;;;;4908086;29;20059;-75
2022/04/29 15:46:56;;;;;;;3.10;2.20;;;28.20;45.20;;;;;;4907939;29;20044;-75
2022/04/29 15:49:21;;;;;;;3.67;2.20;;;27.70;45.30;;;;;;4908002;29;20322;-75
2022/04/29 15:51:47;;;;;;;3.67;2.13;;;27.50;44.90;;;;;;4908647;29;20091;-75
2022/04/29 15:54:13;;;;;;;3.08;2.00;;;27.50;46.00;;;;;;4907661;29;20040;-76
2022/04/29 15:56:39;;;;;;;5.55;2.83;;;27.50;46.00;;;;;;4908342;29;20043;-75
2022/04/29 15:59:06;;;;;;;3.72;2.38;;;27.20;46.00;;;;;;4908222;29;20039;-76
2022/04/29 16:01:36;;;;;;;4.97;2.33;;;26.70;46.10;;;;;;4890238;29;20330;-75
2022/04/29 16:04:05;;;;;;;5.10;2.35;;;26.20;47.30;;;;;;4908148;29;20037;-74
2022/04/29 16:06:32;;;;;;;3.17;2.25;;;26.20;46.60;;;;;;4906728;29;20048;-74
2022/04/29 16:08:58;;;;;;;4.50;2.45;;;25.70;47.30;;;;;;4907843;29;20024;-75
2022/04/29 16:11:24;;;;;;;3.88;2.20;;;25.60;47.50;;;;;;4907255;29;20044;-75
2022/04/29 16:13:50;;;;;;;4.28;2.20;;;25.70;48.60;;;;;;4907766;29;20330;-74
2022/04/29 16:16:16;;;;;;;3.95;2.58;;;25.40;47.10;;;;;;4906585;29;20100;-74
2022/04/29 16:21:27;;;;;;;3.92;2.42;;;25.10;49.00;;;;;;4907139;29;20051;-74
2022/04/29 16:26:40;;;;;;;3.63;2.50;;;27.50;48.60;;;;;;4907591;29;20076;-75
2022/04/29 16:29:05;;;;;;;4.40;2.58;;;29.60;44.70;;;;;;4907686;29;20317;-74
2022/04/29 16:31:33;;;;;;;3.10;2.13;;;30.70;43.70;;;;;;4906704;29;20132;-74
2022/04/29 16:33:58;;;;;;;5.40;2.20;;;31.00;42.50;;;;;;4891245;29;20200;-74
2022/04/29 16:36:25;;;;;;;5.40;2.50;;;30.60;44.10;;;;;;4907534;29;20080;-74
2022/04/29 16:38:51;;;;;;;4.05;2.72;;;30.00;43.70;;;;;;4907224;29;20289;-76
2022/04/29 16:41:18;;;;;;;4.13;1.90;;;29.30;43.90;;;;;;4907113;29;20032;-75
2022/04/29 16:43:48;;;;;;;5.10;2.38;;;28.70;44.50;;;;;;4907690;29;20032;-74
2022/04/29 16:46:15;;;;;;;3.97;2.30;;;27.80;44.80;;;;;;4906335;29;20234;-74
2022/04/29 16:48:41;;;;;;;6.88;2.58;;;26.90;46.00;;;;;;4907154;29;20033;-74
2022/04/29 16:51:07;;;;;;;4.10;2.38;;;26.20;46.70;;;;;;4907195;29;20029;-76
2022/04/29 16:53:35;;;;;;;3.60;2.28;;;25.70;48.90;;;;;;4906621;29;20044;-75
2022/04/29 16:56:01;;;;;;;3.45;2.00;;;25.20;47.80;;;;;;4907388;29;20028;-74
2022/04/29 16:58:55;;;;;;;3.03;2.15;;;24.70;49.50;;;;;;4906424;29;20360;-74
2022/04/29 17:01:22;;;;;;;3.58;2.42;;;24.20;49.10;;;;;;4906048;29;20036;-74
2022/04/29 17:03:50;;;;;;;5.10;2.67;;;23.80;49.40;;;;;;4906997;29;20227;-74
2022/04/29 17:06:24;;;;;;;3.92;2.42;;;23.40;50.40;;;;;;4905773;29;20054;-74
2022/04/29 17:08:50;;;;;;;8.80;2.65;;;23.00;51.20;;;;;;4904257;29;20354;-75
2022/04/29 17:11:17;;;;;;;3.38;2.40;;;22.90;52.10;;;;;;4906447;29;20040;-74
2022/04/29 17:13:43;;;;;;;4.95;2.35;;;22.80;52.30;;;;;;4906892;29;20027;-74
2022/04/29 17:16:09;;;;;;;6.47;2.40;;;22.80;53.50;;;;;;4906729;29;20048;-73
2022/04/29 17:18:35;;;;;;;3.60;2.40;;;22.90;53.30;;;;;;4906528;29;20048;-74
2022/04/29 17:21:00;;;;;;;3.50;2.40;;;22.90;52.50;;;;;;4903807;29;20087;-75
2022/04/29 17:23:27;;;;;;;4.28;2.70;;;22.90;53.60;;;;;;4909757;29;20056;-74
2022/04/29 17:25:54;;;;;;;4.47;2.60;;;22.80;52.70;;;;;;4890394;29;20067;-74
2022/04/29 17:28:20;;;;;;;4.55;2.60;;;22.50;52.80;;;;;;4923166;29;20059;-75
2022/04/29 17:30:46;;;;;;;8.43;2.88;;;22.30;54.10;;;;;;4915538;29;20040;-73
2022/04/29 17:33:17;;;;;;;4.28;2.75;;;22.10;53.30;;;;;;4906527;29;20067;-75
2022/04/29 17:35:44;;;;;;;4.35;2.67;;;21.90;53.60;;;;;;4906988;29;20326;-75
2022/04/29 17:38:10;;;;;;;4.20;2.65;;;21.90;54.10;;;;;;4906512;29;20253;-75
2022/04/29 17:43:20;;;;;;;4.60;2.53;;;21.60;54.10;;;;;;4906316;29;20032;-75
2022/04/29 17:45:46;;;;;;;5.30;2.70;;;21.50;54.10;;;;;;4904938;29;20048;-75
2022/04/29 17:48:12;;;;;;;4.10;2.78;;;21.30;54.60;;;;;;4906496;29;20036;-76
2022/04/29 17:50:39;;;;;;;4.60;2.67;;;21.20;55.10;;;;;;4906659;29;20047;-77
2022/04/29 17:53:05;;;;;;;4.15;2.88;;;21.10;54.80;;;;;;4906762;29;20199;-75
2022/04/29 17:55:33;;;;;;;5.35;3.08;;;20.90;55.50;;;;;;4906144;29;20341;-76
2022/04/29 17:58:04;;;;;;;4.10;2.72;;;20.90;56.50;;;;;;4905791;29;20037;-74
2022/04/29 18:00:32;;;;;;;4.72;2.50;;;20.70;55.80;;;;;;4905688;29;20047;-74
2022/04/29 18:02:58;;;;;;;3.13;2.17;;;20.60;56.20;;;;;;4908317;29;20088;-75
2022/04/29 18:05:26;;;;;;;4.18;2.75;;;20.40;57.00;;;;;;4909986;29;20031;-75
2022/04/29 18:07:52;;;;;;;5.32;2.70;;;20.30;57.10;;;;;;4910254;29;20314;-75
2022/04/29 18:10:18;;;;;;;4.38;2.85;;;20.20;57.70;;;;;;4909825;29;20039;-74
2022/04/29 18:12:44;;;;;;;5.05;2.78;;;20.00;57.80;;;;;;4910280;29;20024;-75
2022/04/29 18:15:12;;;;;;;7.43;3.10;;;19.80;57.50;;;;;;4892898;29;20315;-75
2022/04/29 18:17:39;;;;;;;5.20;2.42;;;19.70;58.80;;;;;;4909538;29;20047;-75
2022/04/29 18:20:06;;;;;;;4.97;2.83;;;19.50;59.30;;;;;;4910112;29;20037;-75
2022/04/29 18:22:33;;;;;;;4.67;2.70;;;19.40;59.30;;;;;;4909798;29;20043;-75
2022/04/29 18:24:59;;;;;;;5.85;2.85;;;19.20;60.20;;;;;;4910284;29;20040;-76
2022/04/29 18:27:26;;;;;;;6.00;3.00;;;19.00;60.60;;;;;;4909622;29;20036;-74
2022/04/29 18:29:52;;;;;;;5.22;2.95;;;18.90;60.10;;;;;;4909925;29;20080;-76
2022/04/29 18:32:18;;;;;;;4.78;2.88;;;18.70;61.80;;;;;;4908272;29;20072;-75
2022/04/29 18:34:44;;;;;;;5.00;2.90;;;18.60;61.80;;;;;;4909614;29;20036;-75
2022/04/29 18:37:13;;;;;;;5.22;4.00;;;18.60;62.50;;;;;;4909595;29;20036;-74
2022/04/29 18:39:39;;;;;;;7.22;4.28;;;18.50;62.90;;;;;;4892565;29;20043;-74
2022/04/29 18:42:05;;;;;;;5.75;3.72;;;18.40;62.70;;;;;;4908486;29;20330;-76
2022/04/29 18:44:33;;;;;;;5.30;3.45;;;18.30;63.10;;;;;;4909090;29;20032;-75
2022/04/29 18:46:59;;;;;;;5.80;3.58;;;18.20;63.50;;;;;;4908803;29;20208;-75